Ten. Cel. Aviador César Bombonato Airport
SBUL : rendu visible

Aérodrome :











RETROUVEZ-NOUS SUR...

 
LOGIN :

S'inscrire | Disclaimer

   EN    FR    IT 

 









Légende :    VFR   VFR Marginal   IFR   IFR Intensif   IFR Très Intensif
Visi : 
Plafond : 
>= 8 km
>= 3000ft
5 à 8 km
1000 à 3000 ft
1500m à 5 km
500 à 1000 ft
800 à 1500m
200 à 500 ft
< 800m
< 200 ft
Symboles :   Orages  Brouillard  Fortes neiges  Fortes précipitations  Vent > 20 kt






- Altitude de l'aérodrome : 3094 ft
- Code IATA : UDI


SBUL - Ten. Cel. Aviador César Bombonato

DERNIER METAR :
  • 040800Z 24005KT CAVOK 20/18 Q1014

METARs EXPIRÉS :
  • 040700Z 25006KT CAVOK 21/18 Q1014
  • 040600Z 27005KT CAVOK 21/18 Q1014

TAF TAF SBUL
Valide du 04 à 06h jusqu'au 04 à 18h UTC


040100Z 0406/0418 32005KT 8000 NSCTN19/0406Z TX29/0417Z
BECMG 0412/0414 27005KT NSC
BECMG 0416/0418 24005KT RMK PHG



MET'MAP, la Météo Aéronautique d'un coup d'oeil ! - Copyright ORBIFLY Décembre 2007 - Disclaimer

ORBIFLY MET'MAP TEAM :

Programmation & Développement : Alexandra Zaïnal
Sur une idée originale de : Baudouin d'Aumeries
Assistance à la programmation : Marc-Olivier Méhu
Soutien technique & logistique : Manuel Goepfert

Contact : metmap@orbifly.com




SOURCES & CREDITS :

   NOAA       Earth
Advisory